Terminal Aerodrome Forecast
Issued by NWS Blacksburg, VA

Home | Current Version | Previous Version | Text Only | Print | Product List | Glossary On
Versions: 1 2 3 4 5 6 7 8 9 10 11 12 13 14 15 16 17 18
000
FTUS41 KRNK 220625 AAA
TAFLYH
TAF AMD
KLYH 220625Z 2206/2306 02005KT 4SM -DZ BR OVC003
      TEMPO 2210/2214 1SM BR SCT001 OVC003
     FM221400 05006KT 5SM BR OVC003
     FM221600 07005KT 4SM -RA BR OVC005
     FM221900 08005KT 2SM -RA BR OVC008
     FM230100 06007KT 1SM SHRA BR BKN004 OVC012=

USA.gov is the U.S. government's official web portal to all federal, state and local government web resources and services.